Terminal Aerodrome Forecast
Issued by NWS

Home | Current Version | Previous Version | Text Only | Print | Product List | Glossary On
Versions: 1 2 3 4 5 6 7 8 9 10 11 12 13
497
FTUS43 KOAX 121902 AAA
TAFSNY
TAF AMD
KSNY 121902Z 1219/1318 09011KT P6SM OVC007
     FM122100 13009KT 3SM BR OVC007
     FM130100 16011KT 1SM BR OVC007
     FM131600 21011KT P6SM OVC015=

USA.gov is the U.S. government's official web portal to all federal, state and local government web resources and services.